createdAt,value
2019-03-27T00:01:04.957Z,102252.00
2019-03-27T00:03:36.057Z,102258.00
2019-03-27T00:06:07.545Z,102258.00
2019-03-27T00:08:38.723Z,102252.00
2019-03-27T00:11:09.804Z,102243.00
2019-03-27T00:13:40.828Z,102245.00
2019-03-27T00:16:12.100Z,102245.00
2019-03-27T00:18:43.243Z,102248.00
2019-03-27T00:21:14.311Z,102242.00
2019-03-27T00:23:45.745Z,102242.00
2019-03-27T00:26:16.866Z,102253.00
2019-03-27T00:28:49.286Z,102252.00
2019-03-27T00:31:20.540Z,102255.00
2019-03-27T00:33:51.563Z,102247.00
2019-03-27T00:36:23.037Z,102258.00
2019-03-27T00:38:54.091Z,102261.00
2019-03-27T00:41:25.455Z,102258.00
2019-03-27T00:43:56.868Z,102257.00
2019-03-27T00:46:27.864Z,102243.00
2019-03-27T00:48:59.290Z,102258.00
2019-03-27T00:51:30.814Z,102247.00
2019-03-27T00:54:01.914Z,102261.00
2019-03-27T00:56:32.961Z,102251.00
2019-03-27T00:59:04.719Z,102260.00
2019-03-27T01:01:35.998Z,102250.00
2019-03-27T01:04:07.185Z,102252.00
2019-03-27T01:06:38.556Z,102251.00
2019-03-27T01:09:10.967Z,102252.00
2019-03-27T01:11:42.110Z,102244.00
2019-03-27T01:14:13.419Z,102244.00
2019-03-27T01:16:44.530Z,102244.00
2019-03-27T01:19:15.703Z,102249.00
2019-03-27T01:21:46.770Z,102242.00
2019-03-27T01:24:18.077Z,102249.00
2019-03-27T01:26:49.059Z,102246.00
2019-03-27T01:29:20.382Z,102235.00
2019-03-27T01:31:51.721Z,102233.00
2019-03-27T01:34:22.944Z,102245.00
2019-03-27T01:36:53.969Z,102240.00
2019-03-27T01:39:25.126Z,102242.00
2019-03-27T01:41:56.456Z,102246.00
2019-03-27T01:44:27.592Z,102246.00
2019-03-27T01:46:58.725Z,102250.00
2019-03-27T01:49:29.876Z,102251.00
2019-03-27T01:52:00.961Z,102247.00
2019-03-27T01:54:32.044Z,102257.00
2019-03-27T01:57:03.064Z,102259.00
2019-03-27T01:59:34.232Z,102259.00
2019-03-27T02:02:05.486Z,102267.00
2019-03-27T02:04:36.430Z,102261.00
2019-03-27T02:07:07.557Z,102252.00
2019-03-27T02:09:38.686Z,102273.00
2019-03-27T02:12:09.993Z,102250.00
2019-03-27T02:14:41.439Z,102258.00
2019-03-27T02:17:12.804Z,102251.00
2019-03-27T02:19:44.913Z,102245.00
2019-03-27T02:22:16.048Z,102245.00
2019-03-27T02:24:47.359Z,102241.00
2019-03-27T02:27:18.265Z,102249.00
2019-03-27T02:29:49.476Z,102246.00
2019-03-27T02:32:21.086Z,102262.00
2019-03-27T02:34:52.313Z,102253.00
2019-03-27T02:37:23.801Z,102246.00
2019-03-27T02:39:54.893Z,102244.00
2019-03-27T02:42:26.064Z,102243.00
2019-03-27T02:44:57.191Z,102251.00
2019-03-27T02:47:28.280Z,102256.00
2019-03-27T02:49:59.648Z,102243.00
2019-03-27T02:52:30.900Z,102242.00
2019-03-27T02:55:02.188Z,102234.00
2019-03-27T02:57:33.401Z,102246.00
2019-03-27T03:00:05.413Z,102245.00
2019-03-27T03:02:55.289Z,102241.00
2019-03-27T03:05:26.367Z,102250.00
2019-03-27T03:07:57.721Z,102249.00
2019-03-27T03:10:28.806Z,102251.00
2019-03-27T03:12:59.817Z,102248.00
2019-03-27T03:15:30.930Z,102257.00
2019-03-27T03:18:02.537Z,102254.00
2019-03-27T03:20:33.448Z,102247.00
2019-03-27T03:23:04.584Z,102248.00
2019-03-27T03:25:36.170Z,102254.00
2019-03-27T03:28:07.387Z,102259.00
2019-03-27T03:30:38.405Z,102264.00
2019-03-27T03:33:09.716Z,102264.00
2019-03-27T03:35:41.168Z,102262.00
2019-03-27T03:38:12.274Z,102274.00
2019-03-27T03:40:43.576Z,102269.00
2019-03-27T03:43:14.722Z,102272.00
2019-03-27T03:45:46.090Z,102269.00
2019-03-27T03:48:17.580Z,102270.00
2019-03-27T03:50:51.410Z,102260.00
2019-03-27T03:53:22.850Z,102262.00
2019-03-27T03:55:56.103Z,102267.00
2019-03-27T03:58:29.214Z,102274.00
2019-03-27T04:01:02.930Z,102276.00
2019-03-27T04:03:36.953Z,102278.00
2019-03-27T04:06:08.172Z,102288.00
2019-03-27T04:08:39.366Z,102281.00
2019-03-27T04:11:12.527Z,102272.00
2019-03-27T04:13:44.404Z,102276.00
2019-03-27T04:16:15.371Z,102271.00
2019-03-27T04:18:46.381Z,102279.00
2019-03-27T04:21:17.796Z,102287.00
2019-03-27T04:23:48.821Z,102284.00
2019-03-27T04:26:20.044Z,102293.00
2019-03-27T04:28:51.540Z,102295.00
2019-03-27T04:31:22.768Z,102298.00
2019-03-27T04:33:53.825Z,102308.00
2019-03-27T04:36:25.141Z,102299.00
2019-03-27T04:38:56.281Z,102300.00
2019-03-27T04:41:27.312Z,102308.00
2019-03-27T04:43:58.498Z,102317.00
2019-03-27T04:46:29.981Z,102314.00
2019-03-27T04:49:01.000Z,102311.00
2019-03-27T04:51:32.633Z,102307.00
2019-03-27T04:54:03.701Z,102298.00
2019-03-27T04:56:34.738Z,102296.00
2019-03-27T04:59:05.761Z,102297.00
2019-03-27T05:01:36.895Z,102299.00
2019-03-27T05:04:08.816Z,102296.00
2019-03-27T05:06:39.852Z,102306.00
2019-03-27T05:09:10.871Z,102306.00
2019-03-27T05:11:41.985Z,102306.00
2019-03-27T05:14:13.198Z,102317.00
2019-03-27T05:16:44.304Z,102319.00
2019-03-27T05:19:15.357Z,102326.00
2019-03-27T05:21:54.433Z,102326.00
2019-03-27T05:24:25.706Z,102321.00
2019-03-27T05:26:56.725Z,102327.00
2019-03-27T05:29:27.705Z,102324.00
2019-03-27T05:31:59.184Z,102328.00
2019-03-27T05:34:30.441Z,102334.00
2019-03-27T05:37:01.462Z,102335.00
2019-03-27T05:39:32.534Z,102337.00
2019-03-27T05:42:03.973Z,102337.00
2019-03-27T05:44:35.302Z,102339.00
2019-03-27T05:47:06.358Z,102344.00
2019-03-27T05:49:37.475Z,102338.00
2019-03-27T05:52:08.903Z,102355.00
2019-03-27T05:54:39.865Z,102353.00
2019-03-27T05:57:11.081Z,102345.00
2019-03-27T05:59:42.060Z,102356.00
2019-03-27T06:02:16.785Z,102345.00
2019-03-27T06:04:48.181Z,102353.00
2019-03-27T06:07:19.233Z,102364.00
2019-03-27T06:09:50.632Z,102359.00
2019-03-27T06:12:21.769Z,102353.00
2019-03-27T06:14:53.186Z,102358.00
2019-03-27T06:17:24.723Z,102361.00
2019-03-27T06:19:55.828Z,102364.00
2019-03-27T06:22:26.928Z,102355.00
2019-03-27T06:24:58.292Z,102363.00
2019-03-27T06:27:30.090Z,102358.00
2019-03-27T06:30:01.149Z,102356.00
2019-03-27T06:32:32.310Z,102364.00
2019-03-27T06:35:03.412Z,102360.00
2019-03-27T06:37:34.822Z,102362.00
2019-03-27T06:40:06.712Z,102362.00
2019-03-27T06:42:37.798Z,102364.00
2019-03-27T06:45:09.849Z,102360.00
2019-03-27T06:47:40.980Z,102353.00
2019-03-27T06:50:12.495Z,102366.00
2019-03-27T06:52:43.619Z,102360.00
2019-03-27T06:55:14.970Z,102355.00
2019-03-27T06:57:46.196Z,102354.00
2019-03-27T07:00:17.695Z,102346.00
2019-03-27T07:02:49.439Z,102350.00
2019-03-27T07:05:20.562Z,102347.00
2019-03-27T07:07:51.824Z,102340.00
2019-03-27T07:10:23.189Z,102349.00
2019-03-27T07:12:54.414Z,102351.00
2019-03-27T07:15:25.420Z,102350.00
2019-03-27T07:17:56.605Z,102358.00
2019-03-27T07:20:27.725Z,102362.00
2019-03-27T07:22:58.764Z,102361.00
2019-03-27T07:25:30.104Z,102366.00
2019-03-27T07:28:01.135Z,102372.00
2019-03-27T07:30:32.078Z,102374.00
2019-03-27T07:33:03.119Z,102374.00
2019-03-27T07:35:34.415Z,102370.00
2019-03-27T07:38:05.626Z,102373.00
2019-03-27T07:40:36.651Z,102370.00
2019-03-27T07:43:08.070Z,102374.00
2019-03-27T07:45:39.239Z,102386.00
2019-03-27T07:48:11.439Z,102381.00
2019-03-27T07:50:42.533Z,102385.00
2019-03-27T07:53:13.717Z,102376.00
2019-03-27T07:55:45.261Z,102377.00
2019-03-27T07:58:16.363Z,102382.00
2019-03-27T08:00:47.463Z,102391.00
2019-03-27T08:03:18.887Z,102391.00
2019-03-27T08:06:09.139Z,102391.00
2019-03-27T08:08:40.177Z,102381.00
2019-03-27T08:15:14.679Z,102383.00
2019-03-27T08:17:46.744Z,102381.00
2019-03-27T08:20:19.519Z,102388.00
2019-03-27T08:22:50.902Z,102384.00
2019-03-27T08:25:21.907Z,102394.00
2019-03-27T08:27:53.061Z,102387.00
2019-03-27T08:30:24.550Z,102390.00
2019-03-27T08:32:55.896Z,102382.00
2019-03-27T08:35:27.264Z,102383.00
2019-03-27T08:37:58.365Z,102388.00
2019-03-27T08:40:29.366Z,102386.00
2019-03-27T08:43:00.568Z,102400.00
2019-03-27T08:45:31.676Z,102392.00
2019-03-27T08:48:02.752Z,102393.00
2019-03-27T08:50:33.926Z,102392.00
2019-03-27T08:53:05.080Z,102393.00
2019-03-27T08:55:36.532Z,102395.00
2019-03-27T08:58:07.727Z,102399.00
2019-03-27T09:00:50.140Z,102405.00
2019-03-27T09:03:21.570Z,102411.00
2019-03-27T09:05:52.703Z,102412.00
2019-03-27T09:08:23.961Z,102420.00
2019-03-27T09:10:55.370Z,102427.00
2019-03-27T09:13:26.526Z,102424.00
2019-03-27T09:15:57.951Z,102423.00
2019-03-27T09:18:29.497Z,102430.00
2019-03-27T09:21:00.871Z,102425.00
2019-03-27T09:23:31.919Z,102433.00
2019-03-27T09:26:03.275Z,102430.00
2019-03-27T09:28:34.304Z,102420.00
2019-03-27T09:31:05.484Z,102422.00
2019-03-27T09:33:36.520Z,102428.00
2019-03-27T09:36:07.998Z,102440.00
2019-03-27T09:38:39.580Z,102434.00
2019-03-27T09:41:10.957Z,102430.00
2019-03-27T09:43:42.029Z,102431.00
2019-03-27T09:46:13.429Z,102428.00
2019-03-27T09:48:44.428Z,102428.00
2019-03-27T09:51:15.472Z,102441.00
2019-03-27T09:53:46.790Z,102441.00
2019-03-27T09:56:19.529Z,102436.00
2019-03-27T09:58:50.972Z,102432.00
2019-03-27T10:01:22.372Z,102439.00
2019-03-27T10:03:53.523Z,102437.00
2019-03-27T10:06:24.655Z,102444.00
2019-03-27T10:08:55.709Z,102446.00
2019-03-27T10:11:26.860Z,102443.00
2019-03-27T10:13:58.364Z,102443.00
2019-03-27T10:16:29.456Z,102441.00
2019-03-27T10:19:00.395Z,102431.00
2019-03-27T10:21:31.748Z,102435.00
2019-03-27T10:24:02.859Z,102432.00
2019-03-27T10:26:33.946Z,102438.00
2019-03-27T10:29:05.056Z,102447.00
2019-03-27T10:31:36.053Z,102435.00
2019-03-27T10:34:07.434Z,102440.00
2019-03-27T10:36:38.483Z,102447.00
2019-03-27T10:39:10.554Z,102445.00
2019-03-27T10:41:41.675Z,102439.00
2019-03-27T10:44:12.763Z,102441.00
2019-03-27T10:46:43.872Z,102443.00
2019-03-27T10:49:14.911Z,102447.00
2019-03-27T10:51:46.387Z,102434.00
2019-03-27T10:54:17.474Z,102438.00
2019-03-27T10:56:48.503Z,102443.00
2019-03-27T10:59:20.244Z,102440.00
2019-03-27T11:01:51.697Z,102443.00
2019-03-27T11:04:22.886Z,102439.00
2019-03-27T11:06:53.937Z,102442.00
2019-03-27T11:09:24.946Z,102454.00
2019-03-27T11:11:56.323Z,102451.00
2019-03-27T11:14:37.905Z,102435.00
2019-03-27T11:17:00.761Z,102441.00
2019-03-27T11:19:33.679Z,102446.00
2019-03-27T11:22:05.140Z,102446.00
2019-03-27T11:24:36.411Z,102435.00
2019-03-27T11:27:07.524Z,102436.00
2019-03-27T11:29:39.200Z,102444.00
2019-03-27T11:32:10.492Z,102442.00
2019-03-27T11:34:42.027Z,102439.00
2019-03-27T11:37:13.393Z,102439.00
2019-03-27T11:39:44.533Z,102434.00
2019-03-27T11:42:15.609Z,102429.00
2019-03-27T11:44:46.604Z,102444.00
2019-03-27T11:47:17.623Z,102443.00
2019-03-27T11:49:49.041Z,102447.00
2019-03-27T11:52:20.133Z,102437.00
2019-03-27T11:54:51.428Z,102434.00
2019-03-27T11:57:22.574Z,102440.00
2019-03-27T11:59:54.518Z,102445.00
2019-03-27T12:02:25.677Z,102427.00
2019-03-27T12:04:56.811Z,102426.00
2019-03-27T12:07:27.939Z,102432.00
2019-03-27T12:09:59.414Z,102432.00
2019-03-27T12:12:31.169Z,102434.00
2019-03-27T12:15:02.455Z,102429.00
2019-03-27T12:17:33.528Z,102438.00
2019-03-27T12:20:05.359Z,102430.00
2019-03-27T12:22:36.766Z,102432.00
2019-03-27T12:25:09.463Z,102428.00
2019-03-27T12:27:40.902Z,102425.00
2019-03-27T12:30:12.159Z,102426.00
2019-03-27T12:32:43.275Z,102424.00
2019-03-27T12:35:14.618Z,102417.00
2019-03-27T12:37:46.032Z,102417.00
2019-03-27T12:40:17.344Z,102410.00
2019-03-27T12:42:48.350Z,102404.00
2019-03-27T12:45:19.554Z,102389.00
2019-03-27T12:47:50.999Z,102404.00
2019-03-27T12:50:22.139Z,102394.00
2019-03-27T12:52:53.261Z,102400.00
2019-03-27T12:55:24.393Z,102405.00
2019-03-27T12:57:55.406Z,102399.00
2019-03-27T13:00:26.762Z,102400.00
2019-03-27T13:02:57.844Z,102399.00
2019-03-27T13:05:29.089Z,102398.00
2019-03-27T13:08:00.264Z,102393.00
2019-03-27T13:10:31.856Z,102398.00
2019-03-27T13:13:02.924Z,102399.00
2019-03-27T13:15:34.263Z,102399.00
2019-03-27T13:18:05.636Z,102399.00
2019-03-27T13:20:37.279Z,102403.00
2019-03-27T13:23:08.593Z,102403.00
2019-03-27T13:25:39.695Z,102407.00
2019-03-27T13:28:10.917Z,102409.00
2019-03-27T13:30:42.546Z,102410.00
2019-03-27T13:33:14.226Z,102413.00
2019-03-27T13:35:45.373Z,102415.00
2019-03-27T13:38:16.545Z,102414.00
2019-03-27T13:40:47.914Z,102404.00
2019-03-27T13:43:19.073Z,102411.00
2019-03-27T13:45:50.089Z,102409.00
2019-03-27T13:48:21.316Z,102400.00
2019-03-27T13:50:52.703Z,102394.00
2019-03-27T13:53:23.875Z,102396.00
2019-03-27T13:55:55.303Z,102397.00
2019-03-27T13:58:27.300Z,102400.00
2019-03-27T14:00:58.391Z,102403.00
2019-03-27T14:03:29.877Z,102402.00
2019-03-27T14:06:01.357Z,102401.00
2019-03-27T14:08:32.912Z,102412.00
2019-03-27T14:11:04.241Z,102400.00
2019-03-27T14:13:35.623Z,102398.00
2019-03-27T14:16:08.181Z,102397.00
2019-03-27T14:18:39.787Z,102403.00
2019-03-27T14:21:11.021Z,102397.00
2019-03-27T14:23:42.558Z,102401.00
2019-03-27T14:26:13.701Z,102386.00
2019-03-27T14:28:45.307Z,102389.00
2019-03-27T14:31:16.604Z,102384.00
2019-03-27T14:33:47.692Z,102385.00
2019-03-27T14:36:19.242Z,102386.00
2019-03-27T14:38:50.420Z,102381.00
2019-03-27T14:41:21.517Z,102387.00
2019-03-27T14:43:52.672Z,102390.00
2019-03-27T14:46:25.762Z,102388.00
2019-03-27T14:48:56.617Z,102386.00
2019-03-27T14:51:31.935Z,102381.00
2019-03-27T14:54:03.276Z,102385.00
2019-03-27T14:56:34.378Z,102388.00
2019-03-27T14:59:05.565Z,102386.00
2019-03-27T15:01:36.920Z,102385.00
2019-03-27T15:04:09.178Z,102394.00
2019-03-27T15:06:40.796Z,102390.00
2019-03-27T15:09:12.021Z,102393.00
2019-03-27T15:11:43.461Z,102399.00
2019-03-27T15:14:14.888Z,102394.00
2019-03-27T15:16:45.970Z,102398.00
2019-03-27T15:19:17.391Z,102403.00
2019-03-27T15:21:48.505Z,102403.00
2019-03-27T15:24:20.733Z,102401.00
2019-03-27T15:26:51.946Z,102399.00
2019-03-27T15:29:23.521Z,102398.00
2019-03-27T15:31:55.263Z,102384.00
2019-03-27T15:34:26.499Z,102399.00
2019-03-27T15:36:57.640Z,102396.00
2019-03-27T15:39:29.135Z,102395.00
2019-03-27T15:42:01.488Z,102399.00
2019-03-27T15:44:32.692Z,102391.00
2019-03-27T15:47:04.332Z,102391.00
2019-03-27T15:49:38.886Z,102388.00
2019-03-27T15:52:10.109Z,102397.00
2019-03-27T15:54:41.620Z,102394.00
2019-03-27T15:57:12.870Z,102397.00
2019-03-27T15:59:44.001Z,102392.00
2019-03-27T16:02:15.377Z,102385.00
2019-03-27T16:04:46.821Z,102390.00
2019-03-27T16:07:18.049Z,102390.00
2019-03-27T16:09:49.255Z,102389.00
2019-03-27T16:12:20.442Z,102386.00
2019-03-27T16:14:51.848Z,102385.00
2019-03-27T16:17:22.898Z,102384.00
2019-03-27T16:19:53.968Z,102397.00
2019-03-27T16:22:25.601Z,102392.00
2019-03-27T16:24:56.790Z,102386.00
2019-03-27T16:27:27.921Z,102387.00
2019-03-27T16:29:59.444Z,102385.00
2019-03-27T16:32:30.918Z,102387.00
2019-03-27T16:35:02.555Z,102384.00
2019-03-27T16:37:33.459Z,102378.00
2019-03-27T16:40:04.960Z,102384.00
2019-03-27T16:42:36.084Z,102375.00
2019-03-27T16:45:08.539Z,102385.00
2019-03-27T16:47:39.820Z,102389.00
2019-03-27T16:50:11.951Z,102377.00
2019-03-27T16:52:43.545Z,102386.00
2019-03-27T16:55:15.065Z,102391.00
2019-03-27T16:57:46.199Z,102393.00
2019-03-27T17:00:17.606Z,102391.00
2019-03-27T17:02:49.107Z,102395.00
2019-03-27T17:05:20.606Z,102397.00
2019-03-27T17:07:51.821Z,102396.00
2019-03-27T17:10:22.950Z,102397.00
2019-03-27T17:12:54.009Z,102390.00
2019-03-27T17:15:25.174Z,102404.00
2019-03-27T17:17:56.484Z,102402.00
2019-03-27T17:20:27.699Z,102406.00
2019-03-27T17:22:59.053Z,102400.00
2019-03-27T17:25:30.084Z,102406.00
2019-03-27T17:28:01.382Z,102408.00
2019-03-27T17:30:32.603Z,102410.00
2019-03-27T17:33:03.677Z,102408.00
2019-03-27T17:35:34.735Z,102407.00
2019-03-27T17:38:05.908Z,102418.00
2019-03-27T17:40:37.099Z,102421.00
2019-03-27T17:43:08.225Z,102414.00
2019-03-27T17:45:39.568Z,102416.00
2019-03-27T17:48:10.720Z,102423.00
2019-03-27T17:50:42.855Z,102417.00
2019-03-27T17:53:14.032Z,102418.00
2019-03-27T17:55:45.186Z,102429.00
2019-03-27T17:58:16.489Z,102430.00
2019-03-27T18:00:56.298Z,102426.00
2019-03-27T18:03:27.762Z,102432.00
2019-03-27T18:05:58.892Z,102431.00
2019-03-27T18:08:29.975Z,102437.00
2019-03-27T18:11:01.385Z,102427.00
2019-03-27T18:13:32.756Z,102431.00
2019-03-27T18:16:03.921Z,102437.00
2019-03-27T18:18:35.054Z,102442.00
2019-03-27T18:21:06.245Z,102438.00
2019-03-27T18:23:46.032Z,102442.00
2019-03-27T18:26:10.720Z,102439.00
2019-03-27T18:28:41.876Z,102441.00
2019-03-27T18:31:13.370Z,102436.00
2019-03-27T18:33:45.269Z,102449.00
2019-03-27T18:36:16.921Z,102445.00
2019-03-27T18:38:47.984Z,102456.00
2019-03-27T18:41:19.206Z,102452.00
2019-03-27T18:43:50.881Z,102448.00
2019-03-27T18:46:22.104Z,102450.00
2019-03-27T18:48:53.301Z,102444.00
2019-03-27T18:51:25.512Z,102455.00
2019-03-27T18:53:59.823Z,102460.00
2019-03-27T18:56:29.675Z,102462.00
2019-03-27T18:59:00.831Z,102462.00
2019-03-27T19:01:32.149Z,102466.00
2019-03-27T19:04:03.368Z,102466.00
2019-03-27T19:06:34.788Z,102469.00
2019-03-27T19:09:08.749Z,102464.00
2019-03-27T19:11:40.090Z,102468.00
2019-03-27T19:14:11.132Z,102466.00
2019-03-27T19:16:42.228Z,102465.00
2019-03-27T19:19:13.733Z,102465.00
2019-03-27T19:21:44.873Z,102465.00
2019-03-27T19:24:17.002Z,102467.00
2019-03-27T19:26:48.581Z,102473.00
2019-03-27T19:29:19.756Z,102472.00
2019-03-27T19:31:52.914Z,102471.00
2019-03-27T19:34:24.094Z,102472.00
2019-03-27T19:36:55.325Z,102476.00
2019-03-27T19:39:26.768Z,102466.00
2019-03-27T19:41:58.083Z,102471.00
2019-03-27T19:44:29.277Z,102473.00
2019-03-27T19:47:00.435Z,102473.00
2019-03-27T19:49:32.451Z,102470.00
2019-03-27T19:52:04.017Z,102469.00
2019-03-27T19:54:35.812Z,102477.00
2019-03-27T19:57:06.825Z,102477.00
2019-03-27T19:59:42.039Z,102481.00
2019-03-27T20:02:13.220Z,102480.00
2019-03-27T20:04:44.547Z,102480.00
2019-03-27T20:07:16.094Z,102488.00
2019-03-27T20:09:47.337Z,102486.00
2019-03-27T20:12:20.468Z,102487.00
2019-03-27T20:14:51.623Z,102492.00
2019-03-27T20:17:22.627Z,102491.00
2019-03-27T20:19:53.803Z,102491.00
2019-03-27T20:22:24.928Z,102495.00
2019-03-27T20:24:56.172Z,102496.00
2019-03-27T20:27:27.547Z,102495.00
2019-03-27T20:29:58.855Z,102497.00
2019-03-27T20:32:29.963Z,102510.00
2019-03-27T20:35:01.109Z,102501.00
2019-03-27T20:37:32.309Z,102500.00
2019-03-27T20:40:03.541Z,102502.00
2019-03-27T20:42:35.117Z,102501.00
2019-03-27T20:45:07.017Z,102503.00
2019-03-27T20:47:38.005Z,102501.00
2019-03-27T20:50:09.720Z,102503.00
2019-03-27T20:52:40.782Z,102506.00
2019-03-27T20:55:12.203Z,102506.00
2019-03-27T20:57:43.373Z,102504.00
2019-03-27T21:00:15.546Z,102514.00
2019-03-27T21:02:47.780Z,102510.00
2019-03-27T21:05:19.451Z,102512.00
2019-03-27T21:07:50.542Z,102494.00
2019-03-27T21:10:22.110Z,102513.00
2019-03-27T21:12:53.302Z,102502.00
2019-03-27T21:15:24.812Z,102510.00
2019-03-27T21:17:56.226Z,102506.00
2019-03-27T21:20:28.307Z,102509.00
2019-03-27T21:22:59.361Z,102508.00
2019-03-27T21:25:30.444Z,102507.00
2019-03-27T21:28:02.150Z,102506.00
2019-03-27T21:30:33.315Z,102516.00
2019-03-27T21:33:04.469Z,102509.00
2019-03-27T21:35:35.763Z,102506.00
2019-03-27T21:38:06.856Z,102520.00
2019-03-27T21:40:39.368Z,102520.00
2019-03-27T21:43:10.441Z,102520.00
2019-03-27T21:45:42.178Z,102534.00
2019-03-27T21:48:13.349Z,102522.00
2019-03-27T21:50:44.817Z,102528.00
2019-03-27T21:53:15.886Z,102522.00
2019-03-27T21:55:47.319Z,102532.00
2019-03-27T21:58:18.419Z,102534.00
2019-03-27T22:00:49.449Z,102521.00
2019-03-27T22:03:21.575Z,102527.00
2019-03-27T22:05:52.617Z,102534.00
2019-03-27T22:08:23.622Z,102537.00
2019-03-27T22:10:55.085Z,102538.00
2019-03-27T22:13:26.189Z,102541.00
2019-03-27T22:15:58.285Z,102542.00
2019-03-27T22:18:29.467Z,102546.00
2019-03-27T22:21:00.991Z,102537.00
2019-03-27T22:23:32.265Z,102538.00
2019-03-27T22:26:03.594Z,102543.00
2019-03-27T22:28:34.676Z,102538.00
2019-03-27T22:31:06.206Z,102541.00
2019-03-27T22:33:37.144Z,102533.00
2019-03-27T22:36:12.694Z,102537.00
2019-03-27T22:38:44.190Z,102529.00
2019-03-27T22:41:15.272Z,102538.00
2019-03-27T22:43:46.208Z,102534.00
2019-03-27T22:46:17.607Z,102532.00
2019-03-27T22:48:48.647Z,102534.00
2019-03-27T22:51:19.676Z,102532.00
2019-03-27T22:53:51.056Z,102532.00
2019-03-27T22:56:22.207Z,102534.00
2019-03-27T22:58:53.333Z,102536.00
2019-03-27T23:01:24.725Z,102540.00
2019-03-27T23:04:01.705Z,102539.00
2019-03-27T23:06:33.051Z,102541.00
2019-03-27T23:09:04.817Z,102536.00
2019-03-27T23:11:36.357Z,102534.00
2019-03-27T23:14:07.443Z,102539.00
2019-03-27T23:16:38.898Z,102543.00
2019-03-27T23:19:10.037Z,102544.00
2019-03-27T23:21:41.485Z,102549.00
2019-03-27T23:24:12.807Z,102544.00
2019-03-27T23:26:44.484Z,102549.00
2019-03-27T23:29:15.538Z,102546.00
2019-03-27T23:31:46.610Z,102560.00
2019-03-27T23:34:17.722Z,102556.00
2019-03-27T23:36:48.855Z,102553.00
2019-03-27T23:39:19.998Z,102546.00
2019-03-27T23:41:51.033Z,102538.00
2019-03-27T23:44:23.068Z,102541.00
2019-03-27T23:46:54.159Z,102536.00
2019-03-27T23:49:25.540Z,102539.00
2019-03-27T23:51:57.256Z,102539.00
2019-03-27T23:54:28.468Z,102546.00
2019-03-27T23:57:00.322Z,102536.00
2019-03-27T23:59:31.766Z,102530.00
